sensor_id;sensor_type;location;lat;lon;timestamp;pressure;altitude;pressure_sealevel;temperature;humidity
62038;BME280;47991;42.974;12.082;2023-07-29T00:00:44;97727.42;;;20.73;76.38
62038;BME280;47991;42.974;12.082;2023-07-29T00:03:24;97729.80;;;20.70;76.21
62038;BME280;47991;42.974;12.082;2023-07-29T00:05:51;97731.61;;;20.69;76.02
62038;BME280;47991;42.974;12.082;2023-07-29T00:08:18;97727.25;;;20.72;75.80
62038;BME280;47991;42.974;12.082;2023-07-29T00:10:45;97724.06;;;20.72;75.89
62038;BME280;47991;42.974;12.082;2023-07-29T00:13:11;97719.30;;;20.68;75.59
62038;BME280;47991;42.974;12.082;2023-07-29T00:15:39;97717.65;;;20.58;75.90
62038;BME280;47991;42.974;12.082;2023-07-29T00:18:06;97717.45;;;20.58;75.97
62038;BME280;47991;42.974;12.082;2023-07-29T00:20:33;97714.27;;;20.63;75.89
62038;BME280;47991;42.974;12.082;2023-07-29T00:23:00;97712.23;;;20.67;75.74
62038;BME280;47991;42.974;12.082;2023-07-29T00:25:28;97706.23;;;20.60;76.28
62038;BME280;47991;42.974;12.082;2023-07-29T00:27:56;97708.45;;;20.35;76.25
62038;BME280;47991;42.974;12.082;2023-07-29T00:30:23;97707.95;;;20.29;76.24
62038;BME280;47991;42.974;12.082;2023-07-29T00:32:49;97705.35;;;20.30;76.35
62038;BME280;47991;42.974;12.082;2023-07-29T00:35:16;97706.27;;;20.28;76.24
62038;BME280;47991;42.974;12.082;2023-07-29T00:37:43;97703.20;;;20.15;76.49
62038;BME280;47991;42.974;12.082;2023-07-29T00:40:15;97702.97;;;20.00;76.87
62038;BME280;47991;42.974;12.082;2023-07-29T00:42:43;97702.92;;;19.87;76.80
62038;BME280;47991;42.974;12.082;2023-07-29T00:45:11;97696.54;;;19.83;77.14
62038;BME280;47991;42.974;12.082;2023-07-29T00:47:38;97699.14;;;19.79;77.00
62038;BME280;47991;42.974;12.082;2023-07-29T00:50:06;97705.10;;;19.81;76.96
62038;BME280;47991;42.974;12.082;2023-07-29T00:52:34;97703.72;;;19.80;77.26
62038;BME280;47991;42.974;12.082;2023-07-29T00:55:00;97710.42;;;19.85;77.11
62038;BME280;47991;42.974;12.082;2023-07-29T00:57:29;97709.52;;;19.88;76.97
62038;BME280;47991;42.974;12.082;2023-07-29T00:59:56;97714.16;;;19.93;76.55
62038;BME280;47991;42.974;12.082;2023-07-29T01:02:24;97711.28;;;19.93;76.73
62038;BME280;47991;42.974;12.082;2023-07-29T01:04:54;97715.33;;;19.87;77.01
62038;BME280;47991;42.974;12.082;2023-07-29T01:10:01;97712.24;;;19.79;76.65
62038;BME280;47991;42.974;12.082;2023-07-29T01:18:12;97709.89;;;19.57;77.08
62038;BME280;47991;42.974;12.082;2023-07-29T01:20:43;97705.69;;;19.47;77.45
62038;BME280;47991;42.974;12.082;2023-07-29T01:23:12;97703.25;;;19.41;77.41
62038;BME280;47991;42.974;12.082;2023-07-29T01:25:39;97705.30;;;19.37;77.68
62038;BME280;47991;42.974;12.082;2023-07-29T01:28:06;97712.05;;;19.38;77.77
62038;BME280;47991;42.974;12.082;2023-07-29T01:30:39;97714.13;;;19.39;77.71
62038;BME280;47991;42.974;12.082;2023-07-29T01:33:35;97716.86;;;19.41;77.64
62038;BME280;47991;42.974;12.082;2023-07-29T01:36:15;97712.35;;;19.41;78.14
62038;BME280;47991;42.974;12.082;2023-07-29T01:38:45;97710.00;;;19.39;78.02
62038;BME280;47991;42.974;12.082;2023-07-29T01:41:16;97712.27;;;19.29;78.35
62038;BME280;47991;42.974;12.082;2023-07-29T01:43:46;97711.77;;;19.17;78.83
62038;BME280;47991;42.974;12.082;2023-07-29T01:46:15;97713.09;;;19.11;78.95
62038;BME280;47991;42.974;12.082;2023-07-29T01:48:42;97707.88;;;19.14;78.79
62038;BME280;47991;42.974;12.082;2023-07-29T01:51:12;97709.95;;;19.17;78.60
62038;BME280;47991;42.974;12.082;2023-07-29T01:53:38;97708.89;;;19.17;78.69
62038;BME280;47991;42.974;12.082;2023-07-29T01:56:05;97699.36;;;19.18;78.50
62038;BME280;47991;42.974;12.082;2023-07-29T01:58:32;97697.17;;;19.10;78.72
62038;BME280;47991;42.974;12.082;2023-07-29T02:00:59;97699.11;;;18.96;79.05
62038;BME280;47991;42.974;12.082;2023-07-29T02:03:26;97699.30;;;18.85;79.44
62038;BME280;47991;42.974;12.082;2023-07-29T02:05:55;97701.78;;;18.82;80.08
62038;BME280;47991;42.974;12.082;2023-07-29T02:08:22;97695.00;;;18.79;80.78
62038;BME280;47991;42.974;12.082;2023-07-29T02:10:49;97693.52;;;18.82;81.14
62038;BME280;47991;42.974;12.082;2023-07-29T02:13:16;97693.00;;;18.91;81.16
62038;BME280;47991;42.974;12.082;2023-07-29T02:15:43;97695.96;;;18.95;81.01
62038;BME280;47991;42.974;12.082;2023-07-29T02:18:10;97697.02;;;18.78;81.91
62038;BME280;47991;42.974;12.082;2023-07-29T02:20:36;97701.86;;;18.66;82.23
62038;BME280;47991;42.974;12.082;2023-07-29T02:23:03;97701.59;;;18.62;81.61
62038;BME280;47991;42.974;12.082;2023-07-29T02:25:31;97698.95;;;18.67;81.01
62038;BME280;47991;42.974;12.082;2023-07-29T02:27:58;97701.98;;;18.76;80.88
62038;BME280;47991;42.974;12.082;2023-07-29T02:30:25;97699.40;;;18.83;81.24
62038;BME280;47991;42.974;12.082;2023-07-29T02:32:51;97698.20;;;18.82;80.42
62038;BME280;47991;42.974;12.082;2023-07-29T02:35:18;97698.50;;;18.89;80.33
62038;BME280;47991;42.974;12.082;2023-07-29T02:37:45;97698.32;;;18.95;79.99
62038;BME280;47991;42.974;12.082;2023-07-29T02:40:12;97692.46;;;18.91;80.13
62038;BME280;47991;42.974;12.082;2023-07-29T02:42:39;97692.70;;;18.87;80.10
62038;BME280;47991;42.974;12.082;2023-07-29T02:45:06;97697.34;;;18.84;80.06
62038;BME280;47991;42.974;12.082;2023-07-29T02:47:37;97700.96;;;18.81;80.38
62038;BME280;47991;42.974;12.082;2023-07-29T02:50:04;97701.73;;;18.74;80.07
62038;BME280;47991;42.974;12.082;2023-07-29T02:52:31;97700.83;;;18.68;80.72
62038;BME280;47991;42.974;12.082;2023-07-29T02:54:58;97702.27;;;18.68;80.55
62038;BME280;47991;42.974;12.082;2023-07-29T02:57:25;97704.91;;;18.63;81.00
62038;BME280;47991;42.974;12.082;2023-07-29T02:59:52;97706.25;;;18.61;81.57
62038;BME280;47991;42.974;12.082;2023-07-29T03:02:18;97704.85;;;18.61;81.15
62038;BME280;47991;42.974;12.082;2023-07-29T03:04:48;97704.30;;;18.56;81.75
62038;BME280;47991;42.974;12.082;2023-07-29T03:07:15;97700.52;;;18.50;81.98
62038;BME280;47991;42.974;12.082;2023-07-29T03:09:42;97699.11;;;18.44;82.11
62038;BME280;47991;42.974;12.082;2023-07-29T03:12:10;97702.77;;;18.43;81.89
62038;BME280;47991;42.974;12.082;2023-07-29T03:14:37;97703.48;;;18.46;82.46
62038;BME280;47991;42.974;12.082;2023-07-29T03:17:05;97708.05;;;18.47;82.29
62038;BME280;47991;42.974;12.082;2023-07-29T03:19:32;97714.80;;;18.54;82.38
62038;BME280;47991;42.974;12.082;2023-07-29T03:21:59;97709.81;;;18.59;82.38
62038;BME280;47991;42.974;12.082;2023-07-29T03:24:26;97709.66;;;18.59;81.78
62038;BME280;47991;42.974;12.082;2023-07-29T03:26:53;97708.29;;;18.55;81.25
62038;BME280;47991;42.974;12.082;2023-07-29T03:29:19;97706.87;;;18.52;81.15
62038;BME280;47991;42.974;12.082;2023-07-29T03:31:46;97706.39;;;18.51;80.89
62038;BME280;47991;42.974;12.082;2023-07-29T03:34:13;97706.27;;;18.41;81.28
62038;BME280;47991;42.974;12.082;2023-07-29T03:36:40;97704.66;;;18.38;81.26
62038;BME280;47991;42.974;12.082;2023-07-29T03:39:07;97706.29;;;18.32;81.20
62038;BME280;47991;42.974;12.082;2023-07-29T03:41:34;97708.92;;;18.23;81.57
62038;BME280;47991;42.974;12.082;2023-07-29T03:44:01;97711.02;;;18.21;81.75
62038;BME280;47991;42.974;12.082;2023-07-29T03:46:28;97711.60;;;18.24;81.36
62038;BME280;47991;42.974;12.082;2023-07-29T03:48:55;97709.80;;;18.27;80.98
62038;BME280;47991;42.974;12.082;2023-07-29T03:51:22;97711.59;;;18.24;80.93
62038;BME280;47991;42.974;12.082;2023-07-29T03:53:51;97714.20;;;18.19;81.00
62038;BME280;47991;42.974;12.082;2023-07-29T03:56:17;97717.83;;;18.19;80.74
62038;BME280;47991;42.974;12.082;2023-07-29T03:58:46;97718.89;;;18.19;80.68
62038;BME280;47991;42.974;12.082;2023-07-29T04:01:14;97715.65;;;18.22;80.80
62038;BME280;47991;42.974;12.082;2023-07-29T04:03:41;97717.11;;;18.24;80.62
62038;BME280;47991;42.974;12.082;2023-07-29T04:06:08;97717.05;;;18.25;80.65
62038;BME280;47991;42.974;12.082;2023-07-29T04:08:35;97717.73;;;18.23;80.81
62038;BME280;47991;42.974;12.082;2023-07-29T04:11:02;97715.70;;;18.21;81.42
62038;BME280;47991;42.974;12.082;2023-07-29T04:13:29;97718.77;;;18.18;81.22
62038;BME280;47991;42.974;12.082;2023-07-29T04:15:55;97722.45;;;18.16;81.59
62038;BME280;47991;42.974;12.082;2023-07-29T04:18:22;97725.11;;;18.19;81.82
62038;BME280;47991;42.974;12.082;2023-07-29T04:20:49;97723.50;;;18.22;81.78
62038;BME280;47991;42.974;12.082;2023-07-29T04:23:16;97719.06;;;18.25;82.04
62038;BME280;47991;42.974;12.082;2023-07-29T04:25:43;97713.91;;;18.33;81.65
62038;BME280;47991;42.974;12.082;2023-07-29T04:28:10;97717.44;;;18.40;81.14
62038;BME280;47991;42.974;12.082;2023-07-29T04:30:36;97721.55;;;18.43;81.04
62038;BME280;47991;42.974;12.082;2023-07-29T04:33:03;97720.35;;;18.48;81.26
62038;BME280;47991;42.974;12.082;2023-07-29T04:35:30;97723.55;;;18.54;81.21
62038;BME280;47991;42.974;12.082;2023-07-29T04:37:57;97724.66;;;18.65;80.99
62038;BME280;47991;42.974;12.082;2023-07-29T04:40:24;97719.80;;;18.72;80.99
62038;BME280;47991;42.974;12.082;2023-07-29T04:42:51;97719.71;;;18.73;81.41
62038;BME280;47991;42.974;12.082;2023-07-29T04:45:18;97718.60;;;18.74;81.16
62038;BME280;47991;42.974;12.082;2023-07-29T04:47:45;97722.27;;;18.78;81.26
62038;BME280;47991;42.974;12.082;2023-07-29T04:50:12;97722.98;;;18.93;80.85
62038;BME280;47991;42.974;12.082;2023-07-29T04:52:39;97724.78;;;19.07;80.72
62038;BME280;47991;42.974;12.082;2023-07-29T04:55:06;97729.79;;;19.27;80.37
62038;BME280;47991;42.974;12.082;2023-07-29T04:57:33;97720.38;;;19.45;80.18
62038;BME280;47991;42.974;12.082;2023-07-29T05:00:00;97716.23;;;19.56;80.40
62038;BME280;47991;42.974;12.082;2023-07-29T05:02:27;97714.02;;;19.43;80.91
62038;BME280;47991;42.974;12.082;2023-07-29T05:04:54;97716.23;;;19.78;80.66
62038;BME280;47991;42.974;12.082;2023-07-29T05:07:21;97714.95;;;20.16;79.20
62038;BME280;47991;42.974;12.082;2023-07-29T05:09:48;97718.50;;;20.43;78.00
62038;BME280;47991;42.974;12.082;2023-07-29T05:12:15;97717.64;;;20.53;77.74
62038;BME280;47991;42.974;12.082;2023-07-29T05:14:42;97717.16;;;20.81;77.18
62038;BME280;47991;42.974;12.082;2023-07-29T05:17:09;97715.40;;;21.18;76.75
62038;BME280;47991;42.974;12.082;2023-07-29T05:19:36;97704.10;;;21.45;75.52
62038;BME280;47991;42.974;12.082;2023-07-29T05:22:03;97701.29;;;21.49;74.33
62038;BME280;47991;42.974;12.082;2023-07-29T05:24:30;97697.55;;;21.43;75.71
62038;BME280;47991;42.974;12.082;2023-07-29T05:26:57;97699.60;;;22.43;74.42
62038;BME280;47991;42.974;12.082;2023-07-29T05:29:24;97701.52;;;23.64;69.65
62038;BME280;47991;42.974;12.082;2023-07-29T05:31:50;97701.06;;;24.75;67.44
62038;BME280;47991;42.974;12.082;2023-07-29T05:34:17;97705.64;;;25.68;64.83
62038;BME280;47991;42.974;12.082;2023-07-29T05:36:44;97704.13;;;26.47;61.16
62038;BME280;47991;42.974;12.082;2023-07-29T05:39:11;97713.73;;;27.20;59.93
62038;BME280;47991;42.974;12.082;2023-07-29T05:41:38;97712.71;;;27.80;58.29
62038;BME280;47991;42.974;12.082;2023-07-29T05:44:05;97711.08;;;28.26;56.56
62038;BME280;47991;42.974;12.082;2023-07-29T05:46:32;97713.14;;;28.45;53.52
62038;BME280;47991;42.974;12.082;2023-07-29T05:48:59;97717.97;;;28.49;55.13
62038;BME280;47991;42.974;12.082;2023-07-29T05:51:26;97721.40;;;28.85;52.89
62038;BME280;47991;42.974;12.082;2023-07-29T05:53:52;97725.19;;;29.36;52.37
62038;BME280;47991;42.974;12.082;2023-07-29T05:56:19;97722.52;;;30.05;51.23
62038;BME280;47991;42.974;12.082;2023-07-29T05:58:46;97714.91;;;30.16;49.53
62038;BME280;47991;42.974;12.082;2023-07-29T06:01:13;97712.54;;;29.82;49.16
62038;BME280;47991;42.974;12.082;2023-07-29T06:03:40;97715.80;;;29.40;50.84
62038;BME280;47991;42.974;12.082;2023-07-29T06:06:07;97715.37;;;29.04;51.78
62038;BME280;47991;42.974;12.082;2023-07-29T06:08:34;97716.59;;;28.99;53.64
62038;BME280;47991;42.974;12.082;2023-07-29T06:11:01;97716.77;;;28.94;52.13
62038;BME280;47991;42.974;12.082;2023-07-29T06:13:28;97711.35;;;28.46;52.92
62038;BME280;47991;42.974;12.082;2023-07-29T06:15:55;97718.85;;;27.70;54.97
62038;BME280;47991;42.974;12.082;2023-07-29T06:18:22;97717.94;;;26.89;57.13
62038;BME280;47991;42.974;12.082;2023-07-29T06:20:49;97717.70;;;26.34;59.38
62038;BME280;47991;42.974;12.082;2023-07-29T06:23:16;97726.33;;;25.89;61.10
62038;BME280;47991;42.974;12.082;2023-07-29T06:25:43;97728.09;;;26.10;61.08
62038;BME280;47991;42.974;12.082;2023-07-29T06:28:09;97719.41;;;26.12;60.54
62038;BME280;47991;42.974;12.082;2023-07-29T06:30:36;97718.10;;;25.66;61.71
62038;BME280;47991;42.974;12.082;2023-07-29T06:33:03;97724.56;;;25.63;62.04
62038;BME280;47991;42.974;12.082;2023-07-29T06:35:30;97732.48;;;25.51;62.46
62038;BME280;47991;42.974;12.082;2023-07-29T06:37:57;97733.90;;;25.48;62.78
62038;BME280;47991;42.974;12.082;2023-07-29T06:40:25;97734.46;;;25.55;62.74
62038;BME280;47991;42.974;12.082;2023-07-29T06:42:52;97733.08;;;25.71;62.48
62038;BME280;47991;42.974;12.082;2023-07-29T06:45:18;97737.30;;;25.84;62.20
62038;BME280;47991;42.974;12.082;2023-07-29T06:47:45;97731.56;;;25.96;62.12
62038;BME280;47991;42.974;12.082;2023-07-29T06:50:12;97728.87;;;26.07;62.17
62038;BME280;47991;42.974;12.082;2023-07-29T06:52:39;97729.84;;;26.07;62.18
62038;BME280;47991;42.974;12.082;2023-07-29T06:55:07;97727.21;;;26.06;62.38
62038;BME280;47991;42.974;12.082;2023-07-29T06:57:34;97723.27;;;26.05;62.81
62038;BME280;47991;42.974;12.082;2023-07-29T07:00:02;97724.58;;;25.93;63.60
62038;BME280;47991;42.974;12.082;2023-07-29T07:02:29;97728.54;;;25.91;63.50
62038;BME280;47991;42.974;12.082;2023-07-29T07:04:56;97729.11;;;25.97;63.08
62038;BME280;47991;42.974;12.082;2023-07-29T07:07:23;97724.80;;;26.04;62.93
62038;BME280;47991;42.974;12.082;2023-07-29T07:09:50;97721.45;;;26.23;62.76
62038;BME280;47991;42.974;12.082;2023-07-29T07:12:18;97719.66;;;26.11;63.78
62038;BME280;47991;42.974;12.082;2023-07-29T07:14:45;97718.02;;;25.89;63.89
62038;BME280;47991;42.974;12.082;2023-07-29T07:17:12;97719.90;;;25.58;63.97
62038;BME280;47991;42.974;12.082;2023-07-29T07:19:40;97723.03;;;25.44;65.57
62038;BME280;47991;42.974;12.082;2023-07-29T07:22:07;97720.03;;;25.53;64.19
62038;BME280;47991;42.974;12.082;2023-07-29T07:24:34;97714.58;;;25.67;63.91
62038;BME280;47991;42.974;12.082;2023-07-29T07:27:01;97710.48;;;25.70;63.21
62038;BME280;47991;42.974;12.082;2023-07-29T07:29:28;97706.96;;;25.71;62.14
62038;BME280;47991;42.974;12.082;2023-07-29T07:31:56;97706.66;;;25.81;61.27
62038;BME280;47991;42.974;12.082;2023-07-29T07:34:23;97708.48;;;25.79;60.81
62038;BME280;47991;42.974;12.082;2023-07-29T07:36:50;97705.73;;;25.83;61.08
62038;BME280;47991;42.974;12.082;2023-07-29T07:39:17;97705.52;;;25.79;60.35
62038;BME280;47991;42.974;12.082;2023-07-29T07:41:43;97707.95;;;25.73;60.28
62038;BME280;47991;42.974;12.082;2023-07-29T07:44:12;97710.23;;;25.79;61.74
62038;BME280;47991;42.974;12.082;2023-07-29T07:46:41;97714.88;;;25.98;59.80
62038;BME280;47991;42.974;12.082;2023-07-29T07:49:10;97715.43;;;26.18;59.43
62038;BME280;47991;42.974;12.082;2023-07-29T07:51:37;97717.60;;;25.94;58.37
62038;BME280;47991;42.974;12.082;2023-07-29T07:54:04;97722.41;;;26.11;59.47
62038;BME280;47991;42.974;12.082;2023-07-29T07:56:31;97712.91;;;26.25;58.80
62038;BME280;47991;42.974;12.082;2023-07-29T07:58:57;97716.34;;;26.19;58.59
62038;BME280;47991;42.974;12.082;2023-07-29T08:01:24;97705.84;;;26.27;58.37
62038;BME280;47991;42.974;12.082;2023-07-29T08:03:51;97710.30;;;26.28;58.24
62038;BME280;47991;42.974;12.082;2023-07-29T08:06:17;97713.20;;;26.45;56.74
62038;BME280;47991;42.974;12.082;2023-07-29T08:08:44;97712.66;;;26.43;55.86
62038;BME280;47991;42.974;12.082;2023-07-29T08:11:11;97723.06;;;26.70;56.25
62038;BME280;47991;42.974;12.082;2023-07-29T08:13:38;97728.71;;;27.20;56.36
62038;BME280;47991;42.974;12.082;2023-07-29T08:16:05;97722.86;;;27.71;55.70
62038;BME280;47991;42.974;12.082;2023-07-29T08:18:32;97720.18;;;28.09;54.49
62038;BME280;47991;42.974;12.082;2023-07-29T08:21:00;97708.02;;;28.27;54.56
62038;BME280;47991;42.974;12.082;2023-07-29T08:23:31;97706.79;;;28.05;54.22
62038;BME280;47991;42.974;12.082;2023-07-29T08:26:00;97707.27;;;27.66;55.20
62038;BME280;47991;42.974;12.082;2023-07-29T08:28:33;97707.63;;;27.68;55.48
62038;BME280;47991;42.974;12.082;2023-07-29T08:31:01;97706.40;;;27.76;54.78
62038;BME280;47991;42.974;12.082;2023-07-29T08:33:29;97707.36;;;27.68;54.64
62038;BME280;47991;42.974;12.082;2023-07-29T08:35:56;97702.31;;;28.12;54.25
62038;BME280;47991;42.974;12.082;2023-07-29T08:38:22;97701.67;;;28.30;52.74
62038;BME280;47991;42.974;12.082;2023-07-29T08:41:10;97702.63;;;28.19;52.95
62038;BME280;47991;42.974;12.082;2023-07-29T08:46:34;97704.61;;;28.94;52.15
62038;BME280;47991;42.974;12.082;2023-07-29T08:49:01;97706.02;;;28.93;51.31
62038;BME280;47991;42.974;12.082;2023-07-29T08:51:29;97706.20;;;28.60;51.71
62038;BME280;47991;42.974;12.082;2023-07-29T08:53:58;97700.35;;;28.44;51.34
62038;BME280;47991;42.974;12.082;2023-07-29T08:56:25;97695.12;;;28.45;52.18
62038;BME280;47991;42.974;12.082;2023-07-29T08:58:54;97693.22;;;28.31;50.89
62038;BME280;47991;42.974;12.082;2023-07-29T09:01:23;97685.98;;;28.53;51.39
62038;BME280;47991;42.974;12.082;2023-07-29T09:03:53;97686.59;;;28.66;50.39
62038;BME280;47991;42.974;12.082;2023-07-29T09:06:21;97687.20;;;28.57;50.84
62038;BME280;47991;42.974;12.082;2023-07-29T09:08:50;97685.94;;;28.97;50.52
62038;BME280;47991;42.974;12.082;2023-07-29T09:11:18;97685.64;;;29.34;49.78
62038;BME280;47991;42.974;12.082;2023-07-29T09:13:46;97685.29;;;28.91;50.28
62038;BME280;47991;42.974;12.082;2023-07-29T09:16:14;97687.09;;;28.54;50.87
62038;BME280;47991;42.974;12.082;2023-07-29T09:18:41;97685.20;;;28.51;50.52
62038;BME280;47991;42.974;12.082;2023-07-29T09:21:08;97685.86;;;28.77;50.63
62038;BME280;47991;42.974;12.082;2023-07-29T09:23:42;97688.66;;;28.71;50.35
62038;BME280;47991;42.974;12.082;2023-07-29T09:26:09;97691.79;;;29.03;50.87
62038;BME280;47991;42.974;12.082;2023-07-29T09:28:38;97691.86;;;29.10;49.53
62038;BME280;47991;42.974;12.082;2023-07-29T09:31:05;97692.95;;;29.14;50.27
62038;BME280;47991;42.974;12.082;2023-07-29T09:33:34;97696.81;;;29.04;51.03
62038;BME280;47991;42.974;12.082;2023-07-29T09:36:09;97687.41;;;29.02;51.88
62038;BME280;47991;42.974;12.082;2023-07-29T09:38:37;97698.56;;;29.74;50.69
62038;BME280;47991;42.974;12.082;2023-07-29T09:41:04;97695.96;;;30.16;48.90
62038;BME280;47991;42.974;12.082;2023-07-29T09:43:32;97694.91;;;30.49;47.55
62038;BME280;47991;42.974;12.082;2023-07-29T09:46:04;97701.48;;;30.85;46.71
62038;BME280;47991;42.974;12.082;2023-07-29T09:48:37;97701.70;;;31.20;45.61
62038;BME280;47991;42.974;12.082;2023-07-29T09:51:12;97696.41;;;31.23;43.35
62038;BME280;47991;42.974;12.082;2023-07-29T09:53:44;97694.95;;;31.14;43.93
62038;BME280;47991;42.974;12.082;2023-07-29T09:56:12;97694.77;;;31.13;45.25
62038;BME280;47991;42.974;12.082;2023-07-29T09:58:39;97692.69;;;31.21;44.31
62038;BME280;47991;42.974;12.082;2023-07-29T10:01:07;97686.41;;;31.06;42.59
62038;BME280;47991;42.974;12.082;2023-07-29T10:03:35;97688.59;;;31.08;43.84
62038;BME280;47991;42.974;12.082;2023-07-29T10:09:34;97682.13;;;30.86;43.86
62038;BME280;47991;42.974;12.082;2023-07-29T10:12:21;97683.14;;;31.27;43.62
62038;BME280;47991;42.974;12.082;2023-07-29T10:14:52;97688.92;;;31.18;42.76
62038;BME280;47991;42.974;12.082;2023-07-29T10:17:20;97686.77;;;31.31;43.57
62038;BME280;47991;42.974;12.082;2023-07-29T10:19:48;97683.92;;;31.59;41.75
62038;BME280;47991;42.974;12.082;2023-07-29T10:22:19;97684.17;;;31.07;42.16
62038;BME280;47991;42.974;12.082;2023-07-29T10:24:48;97678.73;;;30.28;44.18
62038;BME280;47991;42.974;12.082;2023-07-29T10:27:18;97679.59;;;30.15;44.11
62038;BME280;47991;42.974;12.082;2023-07-29T10:29:47;97680.85;;;30.49;44.67
62038;BME280;47991;42.974;12.082;2023-07-29T10:32:15;97677.46;;;30.82;45.01
62038;BME280;47991;42.974;12.082;2023-07-29T10:34:42;97679.17;;;31.19;44.68
62038;BME280;47991;42.974;12.082;2023-07-29T10:37:10;97680.42;;;31.40;42.64
62038;BME280;47991;42.974;12.082;2023-07-29T10:39:39;97678.42;;;31.54;43.09
62038;BME280;47991;42.974;12.082;2023-07-29T10:42:07;97678.67;;;31.44;42.77
62038;BME280;47991;42.974;12.082;2023-07-29T10:47:13;97677.70;;;31.25;43.37
62038;BME280;47991;42.974;12.082;2023-07-29T10:49:44;97679.44;;;31.20;43.68
62038;BME280;47991;42.974;12.082;2023-07-29T10:52:16;97677.98;;;31.52;43.69
62038;BME280;47991;42.974;12.082;2023-07-29T10:54:45;97676.89;;;31.69;42.18
62038;BME280;47991;42.974;12.082;2023-07-29T10:57:15;97677.23;;;31.68;42.09
62038;BME280;47991;42.974;12.082;2023-07-29T10:59:55;97677.17;;;31.79;42.82
62038;BME280;47991;42.974;12.082;2023-07-29T11:02:29;97674.70;;;31.91;43.00
62038;BME280;47991;42.974;12.082;2023-07-29T11:04:57;97671.85;;;32.03;43.00
62038;BME280;47991;42.974;12.082;2023-07-29T11:07:27;97670.36;;;32.08;42.69
62038;BME280;47991;42.974;12.082;2023-07-29T11:09:56;97669.70;;;32.12;41.67
62038;BME280;47991;42.974;12.082;2023-07-29T11:12:34;97664.21;;;32.18;41.83
62038;BME280;47991;42.974;12.082;2023-07-29T11:20:07;97660.63;;;32.25;42.19
62038;BME280;47991;42.974;12.082;2023-07-29T11:22:35;97658.65;;;32.35;40.89
62038;BME280;47991;42.974;12.082;2023-07-29T11:25:02;97654.48;;;32.33;41.13
62038;BME280;47991;42.974;12.082;2023-07-29T11:27:30;97656.04;;;32.10;41.92
62038;BME280;47991;42.974;12.082;2023-07-29T11:30:01;97656.55;;;32.04;42.30
62038;BME280;47991;42.974;12.082;2023-07-29T11:32:28;97652.73;;;32.27;42.05
62038;BME280;47991;42.974;12.082;2023-07-29T11:34:55;97650.19;;;32.43;41.85
62038;BME280;47991;42.974;12.082;2023-07-29T11:37:22;97647.63;;;32.60;41.27
62038;BME280;47991;42.974;12.082;2023-07-29T11:39:49;97639.41;;;32.71;40.73
62038;BME280;47991;42.974;12.082;2023-07-29T11:42:15;97639.45;;;32.58;41.95
62038;BME280;47991;42.974;12.082;2023-07-29T11:44:42;97639.94;;;32.45;41.27
62038;BME280;47991;42.974;12.082;2023-07-29T11:47:11;97638.31;;;32.23;41.63
62038;BME280;47991;42.974;12.082;2023-07-29T11:49:40;97636.95;;;32.04;41.12
62038;BME280;47991;42.974;12.082;2023-07-29T11:52:08;97641.96;;;31.84;41.95
62038;BME280;47991;42.974;12.082;2023-07-29T11:54:39;97639.25;;;31.72;41.29
62038;BME280;47991;42.974;12.082;2023-07-29T11:57:07;97637.15;;;31.35;41.80
62038;BME280;47991;42.974;12.082;2023-07-29T11:59:36;97635.46;;;31.15;42.86
62038;BME280;47991;42.974;12.082;2023-07-29T12:02:17;97632.80;;;31.19;42.58
62038;BME280;47991;42.974;12.082;2023-07-29T12:04:47;97630.98;;;31.65;43.04
62038;BME280;47991;42.974;12.082;2023-07-29T12:07:16;97627.71;;;31.85;43.05
62038;BME280;47991;42.974;12.082;2023-07-29T12:09:46;97623.77;;;32.17;42.03
62038;BME280;47991;42.974;12.082;2023-07-29T12:12:14;97624.11;;;32.20;41.85
62038;BME280;47991;42.974;12.082;2023-07-29T12:14:45;97629.61;;;31.54;42.87
62038;BME280;47991;42.974;12.082;2023-07-29T12:17:15;97630.11;;;31.47;44.18
62038;BME280;47991;42.974;12.082;2023-07-29T12:19:42;97631.02;;;31.55;43.67
62038;BME280;47991;42.974;12.082;2023-07-29T12:22:10;97630.04;;;31.49;43.21
62038;BME280;47991;42.974;12.082;2023-07-29T12:24:40;97627.71;;;31.55;43.80
62038;BME280;47991;42.974;12.082;2023-07-29T12:27:11;97626.95;;;31.91;42.69
62038;BME280;47991;42.974;12.082;2023-07-29T12:29:42;97622.00;;;31.97;42.37
62038;BME280;47991;42.974;12.082;2023-07-29T12:32:10;97625.86;;;31.85;42.40
62038;BME280;47991;42.974;12.082;2023-07-29T12:34:38;97625.92;;;31.77;42.47
62038;BME280;47991;42.974;12.082;2023-07-29T12:37:06;97626.90;;;31.62;42.99
62038;BME280;47991;42.974;12.082;2023-07-29T12:39:35;97623.52;;;31.80;43.09
62038;BME280;47991;42.974;12.082;2023-07-29T12:42:03;97618.60;;;31.84;42.45
62038;BME280;47991;42.974;12.082;2023-07-29T12:44:32;97613.27;;;31.91;41.96
62038;BME280;47991;42.974;12.082;2023-07-29T12:47:03;97616.88;;;31.63;42.26
62038;BME280;47991;42.974;12.082;2023-07-29T12:49:31;97610.81;;;31.57;43.29
62038;BME280;47991;42.974;12.082;2023-07-29T12:51:59;97606.69;;;31.91;43.28
62038;BME280;47991;42.974;12.082;2023-07-29T12:54:26;97606.00;;;32.29;41.71
62038;BME280;47991;42.974;12.082;2023-07-29T12:56:53;97603.02;;;32.54;41.56
62038;BME280;47991;42.974;12.082;2023-07-29T12:59:20;97603.73;;;32.75;42.11
62038;BME280;47991;42.974;12.082;2023-07-29T13:01:46;97600.89;;;32.88;41.52
62038;BME280;47991;42.974;12.082;2023-07-29T13:04:13;97593.56;;;32.97;40.64
62038;BME280;47991;42.974;12.082;2023-07-29T13:06:40;97592.72;;;33.09;40.74
62038;BME280;47991;42.974;12.082;2023-07-29T13:09:07;97590.60;;;33.22;41.33
62038;BME280;47991;42.974;12.082;2023-07-29T13:11:35;97589.33;;;33.43;40.23
62038;BME280;47991;42.974;12.082;2023-07-29T13:14:04;97591.71;;;33.56;39.79
62038;BME280;47991;42.974;12.082;2023-07-29T13:16:30;97590.69;;;33.60;39.49